Vidéos.

Vous avez récemment participé à un vol avec l’équipe Fly & Fun ? Retrouvez votre nom et prénom dans la liste juste en dessous pour télécharger votre vidéo avec votre mot de passe fourni par l’équipe !

METAR :

LFQA 172000Z AUTO 32004KT 9999 ///CB 24/20 Q1011


vue en direct sur l'aérodrome
mentions légales politique de confidentialité
Cochet Concept
cx